createdAt,value
2024-03-02T00:02:30.786Z,8.30
2024-03-02T00:05:02.566Z,8.31
2024-03-02T00:07:34.608Z,8.32
2024-03-02T00:10:14.640Z,8.32
2024-03-02T00:12:46.784Z,8.33
2024-03-02T00:15:42.691Z,8.39
2024-03-02T00:18:16.659Z,8.42
2024-03-02T00:20:48.148Z,8.45
2024-03-02T00:23:21.058Z,8.48
2024-03-02T00:25:57.197Z,8.52
2024-03-02T00:28:29.866Z,8.52
2024-03-02T00:31:03.561Z,8.52
2024-03-02T00:33:38.015Z,8.53
2024-03-02T00:36:11.156Z,8.54
2024-03-02T00:38:50.968Z,8.54
2024-03-02T00:41:28.404Z,8.51
2024-03-02T00:44:04.642Z,8.49
2024-03-02T00:46:39.211Z,8.45
2024-03-02T00:49:16.633Z,8.42
2024-03-02T00:51:52.416Z,8.37
2024-03-02T00:54:25.753Z,8.32
2024-03-02T00:57:00.610Z,8.27
2024-03-02T00:59:33.056Z,8.20
2024-03-02T01:02:04.359Z,8.13
2024-03-02T01:04:35.842Z,8.08
2024-03-02T01:07:07.836Z,8.02
2024-03-02T01:09:39.260Z,7.97
2024-03-02T01:12:13.577Z,7.94
2024-03-02T01:14:44.977Z,7.88
2024-03-02T01:17:16.482Z,7.81
2024-03-02T01:19:47.969Z,7.78
2024-03-02T01:22:24.671Z,7.70
2024-03-02T01:24:56.078Z,7.65
2024-03-02T01:27:30.362Z,7.61
2024-03-02T01:30:01.735Z,7.57
2024-03-02T01:32:33.084Z,7.52
2024-03-02T01:35:04.371Z,7.47
2024-03-02T01:37:36.130Z,7.43
2024-03-02T01:40:10.523Z,7.40
2024-03-02T01:42:44.743Z,7.39
2024-03-02T01:45:17.872Z,7.36
2024-03-02T01:47:49.487Z,7.31
2024-03-02T01:50:21.774Z,7.29
2024-03-02T01:52:53.110Z,7.26
2024-03-02T01:55:24.453Z,7.27
2024-03-02T01:57:59.688Z,7.24
2024-03-02T02:00:31.588Z,7.21
2024-03-02T02:03:03.143Z,7.20
2024-03-02T02:05:34.532Z,7.15
2024-03-02T02:08:06.680Z,7.14
2024-03-02T02:10:38.131Z,7.12
2024-03-02T02:13:12.544Z,7.11
2024-03-02T02:15:44.033Z,7.10
2024-03-02T02:18:15.911Z,7.08
2024-03-02T02:20:47.303Z,7.05
2024-03-02T02:23:21.304Z,7.03
2024-03-02T02:25:52.554Z,6.98
2024-03-02T02:28:23.985Z,6.95
2024-03-02T02:30:55.306Z,6.94
2024-03-02T02:33:26.752Z,6.92
2024-03-02T02:35:58.127Z,6.87
2024-03-02T02:38:32.360Z,6.83
2024-03-02T02:41:03.604Z,6.82
2024-03-02T02:43:34.917Z,6.80
2024-03-02T02:46:06.280Z,6.80
2024-03-02T02:48:37.959Z,6.78
2024-03-02T02:51:09.361Z,6.75
2024-03-02T02:53:43.418Z,6.72
2024-03-02T02:56:14.703Z,6.69
2024-03-02T02:58:46.190Z,6.67
2024-03-02T03:01:18.426Z,6.66
2024-03-02T03:03:50.059Z,6.65
2024-03-02T03:06:21.596Z,6.63
2024-03-02T03:08:55.531Z,6.62
2024-03-02T03:11:27.747Z,6.59
2024-03-02T03:13:59.224Z,6.56
2024-03-02T03:16:30.873Z,6.56
2024-03-02T03:19:02.262Z,6.55
2024-03-02T03:21:33.634Z,6.55
2024-03-02T03:24:08.133Z,6.52
2024-03-02T03:26:40.834Z,6.47
2024-03-02T03:29:12.054Z,6.44
2024-03-02T03:31:43.319Z,6.40
2024-03-02T03:34:17.071Z,6.37
2024-03-02T03:36:48.568Z,6.33
2024-03-02T03:39:22.507Z,6.31
2024-03-02T03:41:53.853Z,6.30
2024-03-02T03:44:25.409Z,6.30
2024-03-02T03:46:57.138Z,6.32
2024-03-02T03:49:28.516Z,6.34
2024-03-02T03:51:59.838Z,6.37
2024-03-02T03:54:33.858Z,6.39
2024-03-02T03:57:05.907Z,6.41
2024-03-02T03:59:38.487Z,6.42
2024-03-02T04:02:10.214Z,6.44
2024-03-02T04:04:41.528Z,6.47
2024-03-02T04:07:13.327Z,6.48
2024-03-02T04:09:47.267Z,6.50
2024-03-02T04:12:18.572Z,6.52
2024-03-02T04:14:49.910Z,6.55
2024-03-02T04:17:21.623Z,6.56
2024-03-02T04:19:53.239Z,6.56
2024-03-02T04:22:25.744Z,6.57
2024-03-02T04:25:00.097Z,6.58
2024-03-02T04:27:31.733Z,6.58
2024-03-02T04:30:03.591Z,6.58
2024-03-02T04:32:34.960Z,6.60
2024-03-02T04:35:06.347Z,6.60
2024-03-02T04:37:39.697Z,6.60
2024-03-02T04:40:14.892Z,6.60
2024-03-02T04:42:46.169Z,6.60
2024-03-02T04:45:17.781Z,6.61
2024-03-02T04:47:50.335Z,6.61
2024-03-02T04:50:21.772Z,6.61
2024-03-02T04:52:53.126Z,6.62
2024-03-02T04:55:53.519Z,6.60
2024-03-02T04:58:25.026Z,6.60
2024-03-02T05:00:56.411Z,6.59
2024-03-02T05:03:27.941Z,6.56
2024-03-02T05:05:59.286Z,6.56
2024-03-02T05:08:30.989Z,6.55
2024-03-02T05:11:25.692Z,6.54
2024-03-02T05:13:54.384Z,6.54
2024-03-02T05:16:26.112Z,6.53
2024-03-02T05:18:57.397Z,6.54
2024-03-02T05:21:28.752Z,6.53
2024-03-02T05:24:00.032Z,6.52
2024-03-02T05:26:34.240Z,6.53
2024-03-02T05:29:05.538Z,6.53
2024-03-02T05:31:36.913Z,6.55
2024-03-02T05:34:08.262Z,6.54
2024-03-02T05:36:40.354Z,6.52
2024-03-02T05:39:12.003Z,6.52
2024-03-02T05:41:45.907Z,6.50
2024-03-02T05:44:17.188Z,6.47
2024-03-02T05:46:48.939Z,6.41
2024-03-02T05:49:20.566Z,6.34
2024-03-02T05:51:51.978Z,6.27
2024-03-02T05:54:23.309Z,6.26
2024-03-02T05:56:57.523Z,6.27
2024-03-02T05:59:28.785Z,6.28
2024-03-02T06:02:00.094Z,6.26
2024-03-02T06:04:31.369Z,6.28
2024-03-02T06:07:03.129Z,6.30
2024-03-02T06:09:34.451Z,6.30
2024-03-02T06:12:09.097Z,6.29
2024-03-02T06:14:40.375Z,6.28
2024-03-02T06:17:11.982Z,6.27
2024-03-02T06:19:43.559Z,6.27
2024-03-02T06:22:14.859Z,6.26
2024-03-02T06:24:46.254Z,6.26
2024-03-02T06:27:20.372Z,6.25
2024-03-02T06:29:52.790Z,6.26
2024-03-02T06:32:24.348Z,6.26
2024-03-02T06:34:55.645Z,6.25
2024-03-02T06:37:28.508Z,6.26
2024-03-02T06:40:00.033Z,6.27
2024-03-02T06:42:35.192Z,6.28
2024-03-02T06:45:07.349Z,6.28
2024-03-02T06:47:38.983Z,6.29
2024-03-02T06:50:11.101Z,6.31
2024-03-02T06:52:43.466Z,6.33
2024-03-02T06:55:14.754Z,6.36
2024-03-02T06:57:49.049Z,6.36
2024-03-02T07:00:21.764Z,6.38
2024-03-02T07:02:53.357Z,6.38
2024-03-02T07:05:25.081Z,6.40
2024-03-02T07:07:56.675Z,6.41
2024-03-02T07:10:27.993Z,6.40
2024-03-02T07:13:02.362Z,6.41
2024-03-02T07:15:51.380Z,6.45
2024-03-02T07:18:23.039Z,6.47
2024-03-02T07:20:54.410Z,6.47
2024-03-02T07:23:28.510Z,6.52
2024-03-02T07:28:39.295Z,6.63
2024-03-02T07:31:11.255Z,6.64
2024-03-02T07:33:42.769Z,6.68
2024-03-02T07:36:14.112Z,6.74
2024-03-02T07:38:46.096Z,6.78
2024-03-02T07:41:17.742Z,6.80
2024-03-02T07:43:52.185Z,6.86
2024-03-02T07:46:23.835Z,6.87
2024-03-02T07:48:55.832Z,6.92
2024-03-02T07:51:27.585Z,6.94
2024-03-02T07:53:59.016Z,6.93
2024-03-02T07:56:31.143Z,6.91
2024-03-02T07:59:05.428Z,6.88
2024-03-02T08:01:37.215Z,6.87
2024-03-02T08:04:08.849Z,6.83
2024-03-02T08:06:40.711Z,6.82
2024-03-02T08:09:13.228Z,6.82
2024-03-02T08:11:44.549Z,6.81
2024-03-02T08:14:18.599Z,6.79
2024-03-02T08:16:50.648Z,6.80
2024-03-02T08:19:22.367Z,6.78
2024-03-02T08:21:53.886Z,6.77
2024-03-02T08:24:25.202Z,6.78
2024-03-02T08:26:56.797Z,6.80
2024-03-02T08:29:30.948Z,6.90
2024-03-02T08:32:02.342Z,7.02
2024-03-02T08:34:35.153Z,7.14
2024-03-02T08:37:07.180Z,7.23
2024-03-02T08:39:38.569Z,7.36
2024-03-02T08:42:10.382Z,7.45
2024-03-02T08:44:44.478Z,7.53
2024-03-02T08:47:16.107Z,7.60
2024-03-02T08:49:47.452Z,7.67
2024-03-02T08:52:18.739Z,7.75
2024-03-02T08:54:50.122Z,7.82
2024-03-02T08:57:21.635Z,7.85
2024-03-02T08:59:55.579Z,7.96
2024-03-02T09:02:27.233Z,8.00
2024-03-02T09:04:58.629Z,8.06
2024-03-02T09:07:30.298Z,8.13
2024-03-02T09:10:04.474Z,8.19
2024-03-02T09:12:35.942Z,8.24
2024-03-02T09:15:17.422Z,8.32
2024-03-02T09:17:49.038Z,8.41
2024-03-02T09:20:20.675Z,8.49
2024-03-02T09:22:52.129Z,8.57
2024-03-02T09:25:23.475Z,8.64
2024-03-02T09:27:55.068Z,8.65
2024-03-02T09:30:29.006Z,8.73
2024-03-02T09:35:34.659Z,8.85
2024-03-02T09:38:07.729Z,8.97
2024-03-02T09:40:39.176Z,9.07
2024-03-02T09:43:10.720Z,9.15
2024-03-02T09:45:44.903Z,9.24
2024-03-02T09:48:19.863Z,9.24
2024-03-02T09:50:51.478Z,9.28
2024-03-02T09:53:23.475Z,9.27
2024-03-02T09:55:54.831Z,9.36
2024-03-02T09:58:26.625Z,9.45
2024-03-02T10:01:00.605Z,9.59
2024-03-02T10:03:34.945Z,9.61
2024-03-02T10:06:24.294Z,9.73
2024-03-02T10:08:56.179Z,9.87
2024-03-02T10:11:35.705Z,9.97
2024-03-02T10:14:12.155Z,10.04
2024-03-02T10:16:48.397Z,10.10
2024-03-02T10:19:36.398Z,10.16
2024-03-02T10:22:10.017Z,10.22
2024-03-02T10:24:43.152Z,10.25
2024-03-02T10:27:19.536Z,10.30
2024-03-02T10:29:52.165Z,10.42
2024-03-02T10:32:27.758Z,10.46
2024-03-02T10:35:01.092Z,10.50
2024-03-02T10:37:33.442Z,10.64
2024-03-02T10:40:09.697Z,10.61
2024-03-02T10:42:42.626Z,10.66
2024-03-02T10:45:14.910Z,10.74
2024-03-02T10:47:51.665Z,10.83
2024-03-02T10:50:23.034Z,10.93
2024-03-02T10:52:54.367Z,11.06
2024-03-02T10:55:25.973Z,11.11
2024-03-02T10:57:59.730Z,11.19
2024-03-02T11:00:36.279Z,11.30
2024-03-02T11:03:12.702Z,11.52
2024-03-02T11:05:45.791Z,11.62
2024-03-02T11:08:22.497Z,11.66
2024-03-02T11:10:56.456Z,11.56
2024-03-02T11:13:38.581Z,11.55
2024-03-02T11:16:20.604Z,11.71
2024-03-02T11:18:54.962Z,11.73
2024-03-02T11:21:26.587Z,11.82
2024-03-02T11:23:57.909Z,11.92
2024-03-02T11:26:29.971Z,11.78
2024-03-02T11:29:01.797Z,11.83
2024-03-02T11:32:03.322Z,12.00
2024-03-02T11:34:40.579Z,12.24
2024-03-02T11:37:14.056Z,12.24
2024-03-02T11:39:45.598Z,12.24
2024-03-02T11:42:18.142Z,12.24
2024-03-02T11:44:51.785Z,12.27
2024-03-02T11:47:23.411Z,12.33
2024-03-02T11:49:57.757Z,12.38
2024-03-02T11:52:31.751Z,12.56
2024-03-02T11:55:04.350Z,12.54
2024-03-02T11:57:36.124Z,12.58
2024-03-02T12:00:09.058Z,12.63
2024-03-02T12:02:43.143Z,12.68
2024-03-02T12:05:17.857Z,12.79
2024-03-02T12:07:50.611Z,12.91
2024-03-02T12:10:22.130Z,12.93
2024-03-02T12:13:00.779Z,12.97
2024-03-02T12:15:34.239Z,13.08
2024-03-02T12:18:07.493Z,13.12
2024-03-02T12:20:41.493Z,13.11
2024-03-02T12:23:15.138Z,13.16
2024-03-02T12:25:47.147Z,13.00
2024-03-02T12:28:19.010Z,12.90
2024-03-02T12:30:51.774Z,13.13
2024-03-02T12:33:24.764Z,13.23
2024-03-02T12:35:58.712Z,13.23
2024-03-02T12:38:30.884Z,13.22
2024-03-02T12:41:02.199Z,13.15
2024-03-02T12:43:38.728Z,13.25
2024-03-02T12:46:10.268Z,13.45
2024-03-02T12:48:45.534Z,13.60
2024-03-02T12:51:19.582Z,13.55
2024-03-02T12:53:57.456Z,13.68
2024-03-02T12:56:29.780Z,13.70
2024-03-02T12:59:02.655Z,13.60
2024-03-02T13:01:36.942Z,13.54
2024-03-02T13:04:08.585Z,13.58
2024-03-02T13:06:42.789Z,13.57
2024-03-02T13:09:17.303Z,13.74
2024-03-02T13:11:48.782Z,13.76
2024-03-02T13:14:20.150Z,13.70
2024-03-02T13:16:53.885Z,13.83
2024-03-02T13:19:25.424Z,13.82
2024-03-02T13:21:59.899Z,13.83
2024-03-02T13:24:31.769Z,13.82
2024-03-02T13:27:05.321Z,13.80
2024-03-02T13:29:36.686Z,13.75
2024-03-02T13:32:08.736Z,13.73
2024-03-02T13:34:40.274Z,13.76
2024-03-02T13:37:14.918Z,13.63
2024-03-02T13:39:46.683Z,13.66
2024-03-02T13:42:18.197Z,13.58
2024-03-02T13:44:52.247Z,13.70
2024-03-02T13:47:23.970Z,13.85
2024-03-02T13:49:55.237Z,13.86
2024-03-02T13:52:29.123Z,13.70
2024-03-02T13:55:00.466Z,13.57
2024-03-02T13:57:32.497Z,13.57
2024-03-02T14:00:04.350Z,13.74
2024-03-02T14:02:43.517Z,13.78
2024-03-02T14:05:15.195Z,13.57
2024-03-02T14:07:49.252Z,13.49
2024-03-02T14:10:23.570Z,13.39
2024-03-02T14:12:56.622Z,13.37
2024-03-02T14:15:28.173Z,13.34
2024-03-02T14:17:59.915Z,13.34
2024-03-02T14:20:31.519Z,13.31
2024-03-02T14:23:05.439Z,13.23
2024-03-02T14:25:36.851Z,13.25
2024-03-02T14:28:27.210Z,13.57
2024-03-02T14:31:02.317Z,13.72
2024-03-02T14:33:33.935Z,13.65
2024-03-02T14:36:05.654Z,13.64
2024-03-02T14:38:39.908Z,13.63
2024-03-02T14:41:11.183Z,13.62
2024-03-02T14:43:42.492Z,13.58
2024-03-02T14:46:14.083Z,13.54
2024-03-02T14:48:45.492Z,13.49
2024-03-02T14:51:17.604Z,13.49
2024-03-02T14:53:51.636Z,13.42
2024-03-02T14:56:22.962Z,13.44
2024-03-02T14:58:55.046Z,13.38
2024-03-02T15:01:26.723Z,13.29
2024-03-02T15:03:58.183Z,13.27
2024-03-02T15:06:29.763Z,13.27
2024-03-02T15:09:03.973Z,13.26
2024-03-02T15:11:35.325Z,13.21
2024-03-02T15:14:06.797Z,13.09
2024-03-02T15:16:39.627Z,13.01
2024-03-02T15:19:11.048Z,12.92
2024-03-02T15:21:42.722Z,12.95
2024-03-02T15:24:16.702Z,12.96
2024-03-02T15:26:48.440Z,12.95
2024-03-02T15:29:20.466Z,12.94
2024-03-02T15:31:52.541Z,12.94
2024-03-02T15:34:24.505Z,12.94
2024-03-02T15:36:56.326Z,12.89
2024-03-02T15:39:30.326Z,12.77
2024-03-02T15:42:01.683Z,12.65
2024-03-02T15:44:33.105Z,12.58
2024-03-02T15:47:04.998Z,12.49
2024-03-02T15:49:36.714Z,12.41
2024-03-02T15:52:08.430Z,12.32
2024-03-02T15:54:42.307Z,12.29
2024-03-02T15:57:14.164Z,12.27
2024-03-02T15:59:45.597Z,12.29
2024-03-02T16:02:16.980Z,12.36
2024-03-02T16:04:48.488Z,12.38
2024-03-02T16:07:20.222Z,12.37
2024-03-02T16:09:54.259Z,12.35
2024-03-02T16:12:25.784Z,12.37
2024-03-02T16:14:57.387Z,12.33
2024-03-02T16:17:29.073Z,12.27
2024-03-02T16:20:00.800Z,12.20
2024-03-02T16:22:32.187Z,12.11
2024-03-02T16:25:06.250Z,12.04
2024-03-02T16:27:38.256Z,11.99
2024-03-02T16:30:11.954Z,11.96
2024-03-02T16:32:43.281Z,11.93
2024-03-02T16:35:14.869Z,11.91
2024-03-02T16:37:47.391Z,11.90
2024-03-02T16:40:21.449Z,11.90
2024-03-02T16:42:53.466Z,11.90
2024-03-02T16:45:25.478Z,11.91
2024-03-02T16:47:57.365Z,11.88
2024-03-02T16:50:28.908Z,11.84
2024-03-02T16:53:00.211Z,11.82
2024-03-02T16:55:34.115Z,11.81
2024-03-02T16:58:05.839Z,11.79
2024-03-02T17:00:39.130Z,11.76
2024-03-02T17:03:10.421Z,11.71
2024-03-02T17:05:41.747Z,11.65
2024-03-02T17:08:13.474Z,11.59
2024-03-02T17:10:47.792Z,11.53
2024-03-02T17:13:19.148Z,11.46
2024-03-02T17:15:50.526Z,11.40
2024-03-02T17:18:22.046Z,11.35
2024-03-02T17:20:53.383Z,11.30
2024-03-02T17:23:24.762Z,11.23
2024-03-02T17:25:58.640Z,11.18
2024-03-02T17:28:33.049Z,11.12
2024-03-02T17:31:05.682Z,11.07
2024-03-02T17:33:37.283Z,11.00
2024-03-02T17:36:09.351Z,10.98
2024-03-02T17:38:41.047Z,10.94
2024-03-02T17:41:14.943Z,10.91
2024-03-02T17:43:46.249Z,10.90
2024-03-02T17:46:17.992Z,10.89
2024-03-02T17:48:49.553Z,10.93
2024-03-02T17:51:20.892Z,10.95
2024-03-02T17:53:53.104Z,10.98
2024-03-02T17:56:28.208Z,10.99
2024-03-02T17:58:59.593Z,11.01
2024-03-02T18:01:31.476Z,11.03
2024-03-02T18:04:04.801Z,11.03
2024-03-02T18:06:37.552Z,11.03
2024-03-02T18:09:09.228Z,11.04
2024-03-02T18:11:43.601Z,11.04
2024-03-02T18:14:15.279Z,11.06
2024-03-02T18:16:48.660Z,11.08
2024-03-02T18:19:20.080Z,11.07
2024-03-02T18:21:51.630Z,11.08
2024-03-02T18:24:24.656Z,11.09
2024-03-02T18:27:01.869Z,11.12
2024-03-02T18:29:33.133Z,11.11
2024-03-02T18:32:04.978Z,11.13
2024-03-02T18:34:38.936Z,11.13
2024-03-02T18:37:13.168Z,11.13
2024-03-02T18:39:45.307Z,11.14
2024-03-02T18:42:19.483Z,11.13
2024-03-02T18:44:51.297Z,11.11
2024-03-02T18:47:23.043Z,11.10
2024-03-02T18:49:56.513Z,11.08
2024-03-02T18:52:28.878Z,11.08
2024-03-02T18:55:00.333Z,11.05
2024-03-02T18:57:35.109Z,11.03
2024-03-02T19:00:12.231Z,11.01
2024-03-02T19:02:45.213Z,11.00
2024-03-02T19:05:16.482Z,10.97
2024-03-02T19:07:50.357Z,10.94
2024-03-02T19:10:21.773Z,10.92
2024-03-02T19:12:55.692Z,10.89
2024-03-02T19:15:27.130Z,10.89
2024-03-02T19:17:58.876Z,10.90
2024-03-02T19:20:30.274Z,10.88
2024-03-02T19:23:03.580Z,10.87
2024-03-02T19:25:37.762Z,10.85
2024-03-02T19:28:12.282Z,10.86
2024-03-02T19:30:45.967Z,10.83
2024-03-02T19:33:19.010Z,10.85
2024-03-02T19:35:50.518Z,10.86
2024-03-02T19:38:25.692Z,10.80
2024-03-02T19:40:56.996Z,10.76
2024-03-02T19:43:30.897Z,10.71
2024-03-02T19:46:02.245Z,10.66
2024-03-02T19:48:33.831Z,10.63
2024-03-02T19:51:05.168Z,10.61
2024-03-02T19:53:38.638Z,10.60
2024-03-02T19:56:12.645Z,10.55
2024-03-02T19:58:46.574Z,10.51
2024-03-02T20:01:21.523Z,10.47
2024-03-02T20:03:52.885Z,10.49
2024-03-02T20:06:24.384Z,10.45
2024-03-02T20:08:55.702Z,10.42
2024-03-02T20:11:27.047Z,10.39
2024-03-02T20:14:00.969Z,10.34
2024-03-02T20:16:32.714Z,10.31
2024-03-02T20:19:04.166Z,10.29
2024-03-02T20:21:35.591Z,10.28
2024-03-02T20:24:06.925Z,10.26
2024-03-02T20:26:38.817Z,10.23
2024-03-02T20:29:12.802Z,10.22
2024-03-02T20:31:44.096Z,10.18
2024-03-02T20:34:17.982Z,10.15
2024-03-02T20:36:49.784Z,10.10
2024-03-02T20:39:22.538Z,10.06
2024-03-02T20:41:54.635Z,10.00
2024-03-02T20:44:28.922Z,9.95
2024-03-02T20:47:00.631Z,9.90
2024-03-02T20:49:32.398Z,9.88
2024-03-02T20:52:03.801Z,9.87
2024-03-02T20:54:35.170Z,9.84
2024-03-02T20:57:07.252Z,9.81
2024-03-02T20:59:41.342Z,9.80
2024-03-02T21:02:12.722Z,9.79
2024-03-02T21:04:46.148Z,9.79
2024-03-02T21:07:19.726Z,9.76
2024-03-02T21:09:51.358Z,9.74
2024-03-02T21:12:22.739Z,9.73
2024-03-02T21:14:56.744Z,9.70
2024-03-02T21:17:28.652Z,9.68
2024-03-02T21:20:00.036Z,9.70
2024-03-02T21:22:31.302Z,9.65
2024-03-02T21:25:03.635Z,9.63
2024-03-02T21:27:35.424Z,9.60
2024-03-02T21:30:10.671Z,9.60
2024-03-02T21:32:42.087Z,9.66
2024-03-02T21:35:16.247Z,9.70
2024-03-02T21:37:47.911Z,9.72
2024-03-02T21:40:20.575Z,9.74
2024-03-02T21:42:52.255Z,9.80
2024-03-02T21:45:26.533Z,9.87
2024-03-02T21:47:58.191Z,9.92
2024-03-02T21:50:31.532Z,10.00
2024-03-02T21:53:04.537Z,10.06
2024-03-02T21:55:36.401Z,10.10
2024-03-02T21:58:08.649Z,10.14
2024-03-02T22:00:42.672Z,10.19
2024-03-02T22:03:14.715Z,10.24
2024-03-02T22:05:46.180Z,10.26
2024-03-02T22:08:17.643Z,10.28
2024-03-02T22:10:48.925Z,10.29
2024-03-02T22:13:21.912Z,10.25
2024-03-02T22:15:55.992Z,10.22
2024-03-02T22:18:27.810Z,10.22
2024-03-02T22:21:00.812Z,10.21
2024-03-02T22:23:34.938Z,10.20
2024-03-02T22:26:06.296Z,10.23
2024-03-02T22:28:37.858Z,10.26
2024-03-02T22:31:12.009Z,10.28
2024-03-02T22:33:43.328Z,10.30
2024-03-02T22:36:14.621Z,10.31
2024-03-02T22:38:48.833Z,10.32
2024-03-02T22:41:20.326Z,10.32
2024-03-02T22:43:52.116Z,10.32
2024-03-02T22:46:26.159Z,10.37
2024-03-02T22:48:57.661Z,10.37
2024-03-02T22:51:30.299Z,10.41
2024-03-02T22:54:01.527Z,10.45
2024-03-02T22:56:32.903Z,10.50
2024-03-02T22:59:04.224Z,10.51
2024-03-02T23:01:41.798Z,10.53
2024-03-02T23:04:13.612Z,10.53
2024-03-02T23:06:45.067Z,10.52
2024-03-02T23:09:16.384Z,10.50
2024-03-02T23:11:47.724Z,10.52
2024-03-02T23:14:19.047Z,10.53
2024-03-02T23:16:53.075Z,10.52
2024-03-02T23:19:24.471Z,10.52
2024-03-02T23:21:56.276Z,10.52
2024-03-02T23:24:27.625Z,10.50
2024-03-02T23:26:59.221Z,10.50
2024-03-02T23:29:30.536Z,10.52
2024-03-02T23:32:04.441Z,10.55
2024-03-02T23:34:35.754Z,10.53
2024-03-02T23:37:07.662Z,10.52
2024-03-02T23:39:52.294Z,10.53
2024-03-02T23:42:23.587Z,10.53
2024-03-02T23:44:54.898Z,10.52
2024-03-02T23:47:28.936Z,10.51
2024-03-02T23:50:00.224Z,10.50
2024-03-02T23:52:32.618Z,10.50
2024-03-02T23:55:06.312Z,10.48
2024-03-02T23:57:39.285Z,10.46
